Time;durP1;ratioP1;P1;durP2;ratioP2;P2;SDS_P1;SDS_P2;PMS_P1;PMS_P2;Temp;Humidity;BMP_temperature;BMP_pressure;BME280_temperature;BME280_humidity;BME280_pressure;Samples;Min_cycle;Max_cycle;Signal;HPM_P1;HPM_P2
2023/09/12 00:00:54;;;;;;;29.35;26.35;;;20.90;99.90;;;;;;5015010;28;20038;-74
2023/09/12 00:03:21;;;;;;;29.83;26.38;;;20.90;99.90;;;;;;5015101;28;20084;-74
2023/09/12 00:05:57;;;;;;;30.08;26.75;;;20.90;99.90;;;;;;5015206;28;20041;-74
2023/09/12 00:08:23;;;;;;;29.92;26.75;;;20.90;99.90;;;;;;5015072;28;20033;-74
2023/09/12 00:11:11;;;;;;;29.70;26.10;;;20.90;99.90;;;;;;5015006;28;20034;-74
2023/09/12 00:13:39;;;;;;;29.08;26.00;;;20.90;99.90;;;;;;5015314;28;20046;-74
2023/09/12 00:16:05;;;;;;;28.60;24.77;;;20.90;99.90;;;;;;4999381;28;20037;-74
2023/09/12 00:18:31;;;;;;;30.42;26.33;;;20.80;99.90;;;;;;5002360;28;20037;-74
2023/09/12 00:20:59;;;;;;;29.83;26.65;;;20.80;99.90;;;;;;5002260;28;20478;-74
2023/09/12 00:23:24;;;;;;;32.35;26.38;;;20.80;99.90;;;;;;5018577;28;20046;-74
2023/09/12 00:25:51;;;;;;;31.42;27.27;;;20.80;99.90;;;;;;5018496;28;20048;-74
2023/09/12 00:28:18;;;;;;;27.50;24.27;;;20.80;99.90;;;;;;5018773;28;20053;-74
2023/09/12 00:30:43;;;;;;;33.45;26.85;;;20.70;99.90;;;;;;5002204;28;20076;-74
2023/09/12 00:33:09;;;;;;;28.90;25.88;;;20.70;99.90;;;;;;5018588;28;20065;-74
2023/09/12 00:35:35;;;;;;;33.78;27.55;;;20.70;99.90;;;;;;5019566;28;20065;-74
2023/09/12 00:38:01;;;;;;;31.00;27.40;;;20.80;99.90;;;;;;5018291;28;20080;-74
2023/09/12 00:40:27;;;;;;;29.95;26.65;;;20.70;99.90;;;;;;5002012;28;20045;-74
2023/09/12 00:42:52;;;;;;;29.58;26.23;;;20.70;99.90;;;;;;5018425;28;20041;-74
2023/09/12 00:45:18;;;;;;;29.77;26.63;;;20.70;99.90;;;;;;5018115;28;20068;-74
2023/09/12 00:47:44;;;;;;;31.52;26.77;;;20.70;99.90;;;;;;5018443;28;20033;-74
2023/09/12 00:50:11;;;;;;;30.88;27.58;;;20.70;99.90;;;;;;5001932;28;20064;-74
2023/09/12 00:52:38;;;;;;;30.05;26.83;;;20.70;99.90;;;;;;5001670;28;20041;-74
2023/09/12 00:55:04;;;;;;;31.17;27.92;;;20.70;99.90;;;;;;5019134;28;20103;-74
2023/09/12 00:57:33;;;;;;;31.70;26.73;;;20.70;99.90;;;;;;5017912;28;20487;-74
2023/09/12 00:59:58;;;;;;;30.65;27.00;;;20.70;99.90;;;;;;5018164;28;20049;-73
2023/09/12 01:02:24;;;;;;;34.20;30.00;;;20.60;99.90;;;;;;5017789;28;20053;-73
2023/09/12 01:04:50;;;;;;;33.03;28.90;;;20.60;99.90;;;;;;5017958;28;20052;-73
2023/09/12 01:07:16;;;;;;;33.38;29.98;;;20.60;99.90;;;;;;5018007;28;20086;-73
2023/09/12 01:09:42;;;;;;;34.10;30.48;;;20.50;99.90;;;;;;5017981;28;20509;-73
2023/09/12 01:12:08;;;;;;;32.25;28.50;;;20.50;99.90;;;;;;5017578;28;20490;-73
2023/09/12 01:14:34;;;;;;;30.88;27.55;;;20.40;99.90;;;;;;5017904;28;20033;-73
2023/09/12 01:17:01;;;;;;;35.47;30.80;;;20.40;99.90;;;;;;5017479;28;20570;-73
2023/09/12 01:19:27;;;;;;;37.85;30.27;;;20.50;99.90;;;;;;5017571;28;20045;-73
2023/09/12 01:22:14;;;;;;;35.50;30.10;;;20.40;99.90;;;;;;5017443;28;20037;-73
2023/09/12 01:24:46;;;;;;;33.42;28.92;;;20.40;99.90;;;;;;5017601;28;20045;-73
2023/09/12 01:27:30;;;;;;;34.47;30.80;;;20.30;99.90;;;;;;5016983;28;20052;-73
2023/09/12 01:30:04;;;;;;;31.13;27.85;;;20.30;99.90;;;;;;5017366;28;20038;-73
2023/09/12 01:32:31;;;;;;;34.13;30.17;;;20.20;99.90;;;;;;5017421;28;20524;-73
2023/09/12 01:34:56;;;;;;;33.97;29.70;;;20.20;99.90;;;;;;5017259;28;20048;-73
2023/09/12 01:37:22;;;;;;;35.75;30.48;;;20.10;99.90;;;;;;5017241;28;20037;-73
2023/09/12 01:39:48;;;;;;;36.00;30.00;;;20.20;99.90;;;;;;5017425;28;20033;-73
2023/09/12 01:42:17;;;;;;;34.22;29.27;;;20.10;99.90;;;;;;5016978;28;20406;-73
2023/09/12 01:44:44;;;;;;;35.53;31.23;;;20.10;99.90;;;;;;5000562;28;20091;-73
2023/09/12 01:47:11;;;;;;;27.73;24.92;;;20.10;99.90;;;;;;5017201;28;20052;-73
2023/09/12 01:49:39;;;;;;;25.90;23.17;;;20.00;99.90;;;;;;5016905;28;20041;-73
2023/09/12 01:52:06;;;;;;;30.02;26.67;;;19.90;99.90;;;;;;5016882;28;20084;-73
2023/09/12 01:54:33;;;;;;;30.10;26.35;;;19.90;99.90;;;;;;5016882;28;20383;-73
2023/09/12 01:57:00;;;;;;;28.85;25.77;;;19.90;99.90;;;;;;5016783;28;20474;-73
2023/09/12 01:59:26;;;;;;;31.00;27.10;;;19.90;99.90;;;;;;5016806;28;20045;-73
2023/09/12 02:01:51;;;;;;;39.88;29.58;;;19.90;99.90;;;;;;5016700;28;20043;-73
2023/09/12 02:04:17;;;;;;;32.10;28.27;;;19.90;99.90;;;;;;5016697;28;20041;-73
2023/09/12 02:06:43;;;;;;;29.38;26.33;;;19.90;99.90;;;;;;5017471;28;20042;-73
2023/09/12 02:09:08;;;;;;;32.45;29.13;;;19.90;99.90;;;;;;5016689;28;20038;-73
2023/09/12 02:11:34;;;;;;;33.05;29.55;;;19.90;99.90;;;;;;5016470;28;20048;-73
2023/09/12 02:13:59;;;;;;;32.05;28.65;;;19.90;99.90;;;;;;5000265;28;20044;-73
2023/09/12 02:16:25;;;;;;;30.20;26.77;;;19.90;99.90;;;;;;5016733;28;20041;-73
2023/09/12 02:18:51;;;;;;;36.08;31.98;;;19.80;99.90;;;;;;5016389;28;20084;-73
2023/09/12 02:21:16;;;;;;;35.05;30.05;;;19.90;99.90;;;;;;5016345;28;20041;-73
2023/09/12 02:23:42;;;;;;;35.03;28.95;;;19.80;99.90;;;;;;5016589;28;20077;-73
2023/09/12 02:26:08;;;;;;;38.70;30.30;;;19.80;99.90;;;;;;5016296;28;20029;-73
2023/09/12 02:28:33;;;;;;;34.80;29.48;;;19.90;99.90;;;;;;5016258;28;20456;-73
2023/09/12 02:30:59;;;;;;;35.05;30.38;;;19.80;99.90;;;;;;4999927;28;20040;-73
2023/09/12 02:33:25;;;;;;;41.50;31.05;;;19.70;99.90;;;;;;5016170;28;20043;-73
2023/09/12 02:35:50;;;;;;;35.83;30.35;;;19.60;99.90;;;;;;5016140;28;20047;-73
2023/09/12 02:38:17;;;;;;;41.38;33.70;;;19.60;99.90;;;;;;5015657;28;20061;-73
2023/09/12 02:40:43;;;;;;;36.75;31.55;;;19.50;99.90;;;;;;4999933;28;20033;-73
2023/09/12 02:43:08;;;;;;;33.45;29.20;;;19.50;99.90;;;;;;5016211;28;20111;-73
2023/09/12 02:45:34;;;;;;;37.08;32.05;;;19.50;99.90;;;;;;5015850;28;20081;-73
2023/09/12 02:47:59;;;;;;;38.20;31.92;;;19.40;99.90;;;;;;4999947;28;20083;-73
2023/09/12 02:50:25;;;;;;;36.85;31.20;;;19.40;99.90;;;;;;5016191;28;20029;-73
2023/09/12 02:52:51;;;;;;;36.22;32.30;;;19.40;99.90;;;;;;5015965;28;20430;-73
2023/09/12 02:55:16;;;;;;;34.67;30.17;;;19.40;99.90;;;;;;5015763;28;20494;-73
2023/09/12 02:57:42;;;;;;;33.22;28.88;;;19.40;99.90;;;;;;4999466;28;20152;-73
2023/09/12 03:00:09;;;;;;;32.58;29.10;;;19.30;99.90;;;;;;5015779;28;20128;-73
2023/09/12 03:02:34;;;;;;;39.67;31.73;;;19.30;99.90;;;;;;5015874;28;20041;-73
2023/09/12 03:05:01;;;;;;;42.53;31.55;;;19.40;99.90;;;;;;5015529;28;20490;-73
2023/09/12 03:07:27;;;;;;;34.40;30.00;;;19.30;99.90;;;;;;5015882;28;20060;-73
2023/09/12 03:09:52;;;;;;;40.08;32.75;;;19.40;99.90;;;;;;5015646;28;20405;-73
2023/09/12 03:12:18;;;;;;;35.35;30.55;;;19.30;99.90;;;;;;4999202;28;20042;-73
2023/09/12 03:14:44;;;;;;;34.70;30.90;;;19.40;99.90;;;;;;5015562;28;20052;-73
2023/09/12 03:17:09;;;;;;;36.75;31.35;;;19.40;99.90;;;;;;4999229;28;20034;-73
2023/09/12 03:19:35;;;;;;;42.65;33.25;;;19.40;99.90;;;;;;5015539;28;20110;-73
2023/09/12 03:22:00;;;;;;;37.40;31.35;;;19.40;99.90;;;;;;5015442;28;20037;-73
2023/09/12 03:24:28;;;;;;;39.53;33.22;;;19.40;99.90;;;;;;4999374;28;20112;-73
2023/09/12 03:26:54;;;;;;;41.80;32.60;;;19.40;99.90;;;;;;5015407;28;20052;-73
2023/09/12 03:29:19;;;;;;;99.40;33.85;;;19.40;99.90;;;;;;4999015;28;20394;-73
2023/09/12 03:31:45;;;;;;;48.63;33.10;;;19.40;99.90;;;;;;5015396;28;20033;-73
2023/09/12 03:34:11;;;;;;;82.78;32.08;;;19.30;99.90;;;;;;5015411;28;20041;-73
2023/09/12 03:36:36;;;;;;;55.33;34.35;;;19.30;99.90;;;;;;5015321;28;20049;-73
2023/09/12 03:39:05;;;;;;;195.57;36.92;;;19.30;99.90;;;;;;5015348;28;20057;-73
2023/09/12 03:41:30;;;;;;;171.82;33.63;;;19.30;99.90;;;;;;4998882;28;20087;-73
2023/09/12 03:43:56;;;;;;;144.13;34.17;;;19.30;99.90;;;;;;5015233;28;20037;-73
2023/09/12 03:46:22;;;;;;;129.40;34.05;;;19.30;99.90;;;;;;5015232;28;20037;-73
2023/09/12 03:48:48;;;;;;;56.20;30.08;;;19.30;99.90;;;;;;5015207;28;20041;-73
2023/09/12 03:51:14;;;;;;;36.28;30.45;;;19.20;99.90;;;;;;5017762;28;20086;-73
2023/09/12 03:53:39;;;;;;;83.43;32.97;;;19.30;99.90;;;;;;5003141;28;20041;-73
2023/09/12 03:56:06;;;;;;;56.28;32.72;;;19.20;99.90;;;;;;5019158;28;20493;-73
2023/09/12 03:58:31;;;;;;;50.88;32.80;;;19.20;99.90;;;;;;5019355;28;20037;-73
2023/09/12 04:00:57;;;;;;;51.42;32.90;;;19.20;99.90;;;;;;5018930;28;20405;-73
2023/09/12 04:03:23;;;;;;;112.25;35.95;;;19.20;99.90;;;;;;5002670;28;20044;-73
2023/09/12 04:05:50;;;;;;;119.72;34.17;;;19.30;99.90;;;;;;5018896;28;20041;-74
2023/09/12 04:08:16;;;;;;;45.30;31.08;;;19.20;99.90;;;;;;5002900;28;20126;-74
2023/09/12 04:10:43;;;;;;;144.82;31.70;;;19.20;99.90;;;;;;5002820;28;20145;-74
2023/09/12 04:13:08;;;;;;;86.72;31.85;;;19.20;99.90;;;;;;5002354;28;20041;-74
2023/09/12 04:15:34;;;;;;;125.03;33.88;;;19.20;99.90;;;;;;5002366;28;20037;-74
2023/09/12 04:17:59;;;;;;;243.90;39.80;;;19.20;99.90;;;;;;5018709;28;20042;-74
2023/09/12 04:20:25;;;;;;;195.73;35.95;;;19.20;99.90;;;;;;5018711;28;20076;-74
2023/09/12 04:22:51;;;;;;;172.52;34.55;;;19.10;99.90;;;;;;5018593;28;20060;-74
2023/09/12 04:25:19;;;;;;;91.22;29.52;;;19.00;99.90;;;;;;5002414;28;20038;-74
2023/09/12 04:27:45;;;;;;;241.70;35.58;;;19.00;99.90;;;;;;5018531;28;20083;-74
2023/09/12 04:30:11;;;;;;;196.05;33.72;;;19.00;99.90;;;;;;5018484;28;20069;-74
2023/09/12 04:32:37;;;;;;;70.75;29.90;;;19.00;99.90;;;;;;5018266;28;20033;-74
2023/09/12 04:35:03;;;;;;;149.05;31.63;;;19.00;99.90;;;;;;5018437;28;20060;-74
2023/09/12 04:37:29;;;;;;;158.82;30.80;;;18.90;99.90;;;;;;5018347;28;20124;-74
2023/09/12 04:39:54;;;;;;;187.77;30.42;;;18.90;99.90;;;;;;5018236;28;20125;-74
2023/09/12 04:42:20;;;;;;;96.13;29.35;;;18.90;99.90;;;;;;5018154;28;20045;-74
2023/09/12 04:44:46;;;;;;;131.15;32.30;;;18.80;99.90;;;;;;5018154;28;20041;-74
2023/09/12 04:47:12;;;;;;;116.00;30.85;;;18.90;99.90;;;;;;5018434;28;20044;-74
2023/09/12 04:49:38;;;;;;;114.63;31.40;;;18.90;99.90;;;;;;5018412;28;20488;-74
2023/09/12 04:52:04;;;;;;;145.15;33.85;;;18.90;99.90;;;;;;5001951;28;20517;-73
2023/09/12 04:54:30;;;;;;;111.32;31.23;;;18.90;99.90;;;;;;5018034;28;20121;-73
2023/09/12 04:56:56;;;;;;;91.45;31.70;;;18.90;99.90;;;;;;5018272;28;20124;-73
2023/09/12 04:59:21;;;;;;;80.93;32.03;;;18.90;99.90;;;;;;5019322;28;20037;-73
2023/09/12 05:01:47;;;;;;;89.88;34.47;;;18.80;99.90;;;;;;5017046;28;20493;-73
2023/09/12 05:04:12;;;;;;;107.90;34.20;;;18.90;99.90;;;;;;5017779;28;20038;-73
2023/09/12 05:06:39;;;;;;;83.93;32.58;;;18.90;99.90;;;;;;5001525;28;20124;-73
2023/09/12 05:09:05;;;;;;;158.48;35.22;;;18.80;99.90;;;;;;5017783;28;20079;-73
2023/09/12 05:11:31;;;;;;;55.60;30.42;;;18.90;99.90;;;;;;5001582;28;20095;-73
2023/09/12 05:13:57;;;;;;;88.53;33.50;;;18.80;99.90;;;;;;5001356;28;20511;-73
2023/09/12 05:16:22;;;;;;;93.80;31.42;;;18.80;99.90;;;;;;5017620;28;20049;-73
2023/09/12 05:18:49;;;;;;;62.13;30.95;;;18.80;99.90;;;;;;5001316;28;20044;-73
2023/09/12 05:21:15;;;;;;;61.00;29.67;;;18.90;99.90;;;;;;5017470;28;20167;-73
2023/09/12 05:23:41;;;;;;;62.97;33.40;;;18.80;99.90;;;;;;5017453;28;20049;-73
2023/09/12 05:26:07;;;;;;;72.68;33.28;;;18.90;99.90;;;;;;5017376;28;20044;-73
2023/09/12 05:28:34;;;;;;;69.10;30.85;;;18.90;99.90;;;;;;5017656;28;20038;-73
2023/09/12 05:30:59;;;;;;;105.65;35.22;;;18.80;99.90;;;;;;5017193;28;20033;-73
2023/09/12 05:33:25;;;;;;;68.63;35.35;;;18.90;99.90;;;;;;5017350;28;20083;-73
2023/09/12 05:35:51;;;;;;;143.27;38.20;;;18.90;99.90;;;;;;5017512;28;20119;-73
2023/09/12 05:38:16;;;;;;;48.78;32.55;;;18.80;99.90;;;;;;5017716;28;20124;-73
2023/09/12 05:40:42;;;;;;;82.35;35.40;;;18.90;99.90;;;;;;5017420;28;20045;-73
2023/09/12 05:43:07;;;;;;;116.00;38.50;;;18.90;99.90;;;;;;5017061;28;20047;-73
2023/09/12 05:45:33;;;;;;;76.97;36.10;;;18.90;99.90;;;;;;5017200;28;20045;-73
2023/09/12 05:48:03;;;;;;;46.17;31.17;;;18.80;99.90;;;;;;5017027;28;20065;-73
2023/09/12 05:50:28;;;;;;;61.33;34.10;;;18.90;99.90;;;;;;5016991;28;20059;-74
2023/09/12 05:52:54;;;;;;;65.57;34.75;;;18.80;99.90;;;;;;5017161;28;20132;-74
2023/09/12 05:55:20;;;;;;;137.50;37.63;;;18.90;99.90;;;;;;5016866;28;20409;-74
2023/09/12 05:57:47;;;;;;;68.93;32.22;;;18.90;99.90;;;;;;5016987;28;20045;-74
2023/09/12 06:00:15;;;;;;;51.47;33.40;;;18.90;99.90;;;;;;5016750;28;20041;-74
2023/09/12 06:02:42;;;;;;;80.85;31.95;;;19.00;99.90;;;;;;5016677;28;20050;-74
2023/09/12 06:05:08;;;;;;;115.95;31.63;;;19.00;99.90;;;;;;5016664;28;20050;-74
2023/09/12 06:07:34;;;;;;;68.32;29.92;;;18.90;99.90;;;;;;5016646;28;20045;-74
2023/09/12 06:09:59;;;;;;;45.45;30.95;;;19.00;99.90;;;;;;5000190;28;20041;-74
2023/09/12 06:12:25;;;;;;;82.78;32.55;;;19.00;99.90;;;;;;5000240;28;20037;-73
2023/09/12 06:14:53;;;;;;;44.42;30.60;;;19.00;99.90;;;;;;5016483;28;20120;-73
2023/09/12 06:17:18;;;;;;;83.82;35.15;;;19.00;99.90;;;;;;5016522;28;20037;-73
2023/09/12 06:19:44;;;;;;;57.35;34.95;;;19.10;99.90;;;;;;5000360;28;20036;-73
2023/09/12 06:22:09;;;;;;;62.83;33.72;;;19.00;99.90;;;;;;5016623;28;20406;-73
2023/09/12 06:24:35;;;;;;;60.60;34.78;;;19.00;99.90;;;;;;5000635;28;20041;-73
2023/09/12 06:27:01;;;;;;;63.90;36.83;;;19.00;99.90;;;;;;5016763;28;20045;-73
2023/09/12 06:29:26;;;;;;;42.15;34.42;;;19.00;99.90;;;;;;5016513;28;20402;-73
2023/09/12 06:31:52;;;;;;;44.80;35.70;;;19.10;99.90;;;;;;5015998;28;20045;-73
2023/09/12 06:34:17;;;;;;;43.97;33.58;;;19.10;99.90;;;;;;4999775;28;20037;-73
2023/09/12 06:36:44;;;;;;;46.17;36.72;;;19.10;99.90;;;;;;5000274;28;20099;-73
2023/09/12 06:39:10;;;;;;;42.55;36.03;;;19.20;99.90;;;;;;5016377;28;20045;-73
2023/09/12 06:41:36;;;;;;;61.10;36.97;;;19.20;99.90;;;;;;5015997;28;20417;-73
2023/09/12 06:44:04;;;;;;;43.83;34.75;;;19.30;99.90;;;;;;5015995;28;20041;-73
2023/09/12 06:46:29;;;;;;;45.65;35.75;;;19.30;99.90;;;;;;4999447;28;20414;-73
2023/09/12 06:48:56;;;;;;;54.05;34.75;;;19.40;99.90;;;;;;5015945;28;20045;-73
2023/09/12 06:51:25;;;;;;;103.22;41.72;;;19.40;99.90;;;;;;5015863;28;20663;-73
2023/09/12 06:53:51;;;;;;;56.97;39.63;;;19.50;99.90;;;;;;5015903;28;20156;-73
2023/09/12 06:56:17;;;;;;;45.25;36.05;;;19.40;99.90;;;;;;5015863;28;20128;-73
2023/09/12 06:58:42;;;;;;;50.38;36.70;;;19.50;99.90;;;;;;5015750;28;20034;-73
2023/09/12 07:01:08;;;;;;;53.80;39.75;;;19.50;99.90;;;;;;5033326;28;20080;-73
2023/09/12 07:03:34;;;;;;;45.85;37.90;;;19.60;99.90;;;;;;5015804;28;20041;-73
2023/09/12 07:06:01;;;;;;;52.75;39.75;;;19.50;99.90;;;;;;5015780;28;20120;-74
2023/09/12 07:08:29;;;;;;;46.30;35.88;;;19.60;99.90;;;;;;5015638;28;20041;-72
2023/09/12 07:10:56;;;;;;;44.97;35.75;;;19.80;99.90;;;;;;5015513;28;20041;-72
2023/09/12 07:13:23;;;;;;;48.15;36.38;;;19.90;99.90;;;;;;5015936;28;20048;-72
2023/09/12 07:15:50;;;;;;;51.95;38.08;;;20.10;99.90;;;;;;4999488;28;20063;-72
2023/09/12 07:18:16;;;;;;;46.25;36.55;;;20.20;99.90;;;;;;4999212;28;20460;-72
2023/09/12 07:20:41;;;;;;;48.03;37.08;;;20.30;99.90;;;;;;5015432;28;20045;-73
2023/09/12 07:23:07;;;;;;;48.17;38.33;;;20.30;99.90;;;;;;5015410;28;20045;-73
2023/09/12 07:25:40;;;;;;;47.42;37.50;;;20.40;99.90;;;;;;5014933;28;20073;-73
2023/09/12 07:28:07;;;;;;;47.90;38.00;;;20.50;99.90;;;;;;5015444;28;20033;-73
2023/09/12 07:30:32;;;;;;;51.80;38.65;;;20.60;99.90;;;;;;5015299;28;20469;-73
2023/09/12 07:32:58;;;;;;;49.67;39.63;;;20.60;99.90;;;;;;5015510;28;20069;-73
2023/09/12 07:35:24;;;;;;;56.17;41.47;;;20.60;99.90;;;;;;5015335;28;20410;-73
2023/09/12 07:37:50;;;;;;;52.28;40.83;;;20.70;99.90;;;;;;4999152;28;20151;-73
2023/09/12 07:40:16;;;;;;;54.85;42.03;;;20.70;99.90;;;;;;4998857;28;20041;-73
2023/09/12 07:42:41;;;;;;;48.25;38.45;;;20.60;99.90;;;;;;5015132;28;20058;-73
2023/09/12 07:45:08;;;;;;;53.60;40.25;;;20.70;99.90;;;;;;4998835;28;20049;-73
2023/09/12 07:47:33;;;;;;;56.35;41.25;;;20.70;99.90;;;;;;5015204;28;20033;-73
2023/09/12 07:50:00;;;;;;;54.95;42.03;;;20.70;99.90;;;;;;5015465;28;20136;-73
2023/09/12 07:52:27;;;;;;;47.53;39.85;;;20.80;99.90;;;;;;4999111;28;20065;-73
2023/09/12 07:54:57;;;;;;;49.63;39.47;;;20.80;99.90;;;;;;5015129;28;20091;-73
2023/09/12 07:57:23;;;;;;;50.53;40.03;;;20.90;99.90;;;;;;5015072;28;20041;-73
2023/09/12 07:59:48;;;;;;;51.78;39.20;;;20.80;99.90;;;;;;5015318;28;20059;-73
2023/09/12 08:02:14;;;;;;;54.70;41.83;;;20.80;99.90;;;;;;5015024;28;20490;-73
2023/09/12 08:04:40;;;;;;;52.53;42.53;;;20.80;99.90;;;;;;5015024;28;20037;-73
2023/09/12 08:07:05;;;;;;;50.08;39.60;;;20.70;99.90;;;;;;5014997;28;20099;-73
2023/09/12 08:09:52;;;;;;;44.40;36.00;;;20.70;99.90;;;;;;5015024;28;20037;-73
2023/09/12 08:12:18;;;;;;;35.55;31.17;;;20.70;99.90;;;;;;5014971;28;20125;-73
2023/09/12 08:14:45;;;;;;;40.83;33.95;;;20.70;99.90;;;;;;5014897;28;20125;-73
2023/09/12 08:17:11;;;;;;;37.60;31.70;;;20.70;99.90;;;;;;5015245;28;20080;-73
2023/09/12 08:19:36;;;;;;;44.47;36.35;;;20.80;99.90;;;;;;5015020;28;20050;-74
2023/09/12 08:22:02;;;;;;;41.10;33.42;;;20.80;99.90;;;;;;5014867;28;20048;-74
2023/09/12 08:24:28;;;;;;;38.95;32.70;;;20.70;99.90;;;;;;5015152;28;20072;-74
2023/09/12 08:26:54;;;;;;;40.63;34.33;;;20.80;99.90;;;;;;5014982;28;20038;-74
2023/09/12 08:29:20;;;;;;;35.63;30.23;;;20.90;99.90;;;;;;5015094;28;20076;-74
2023/09/12 08:31:46;;;;;;;42.60;34.05;;;20.80;99.90;;;;;;5014594;28;20434;-74
2023/09/12 08:34:13;;;;;;;34.50;29.75;;;20.80;99.90;;;;;;5014761;28;20064;-74
2023/09/12 08:36:39;;;;;;;40.03;33.78;;;20.70;99.90;;;;;;5014751;28;20041;-74
2023/09/12 08:39:07;;;;;;;40.85;34.63;;;20.80;99.90;;;;;;5018251;28;20037;-74
2023/09/12 08:41:33;;;;;;;43.72;35.65;;;20.80;99.90;;;;;;5018204;28;20171;-74
2023/09/12 08:44:00;;;;;;;37.08;32.20;;;20.80;99.90;;;;;;5018223;28;20524;-74
2023/09/12 08:46:26;;;;;;;38.08;31.00;;;20.70;99.90;;;;;;5018118;28;20041;-75
2023/09/12 08:48:54;;;;;;;46.58;37.20;;;20.80;99.90;;;;;;5018434;28;20056;-75
2023/09/12 08:51:23;;;;;;;41.97;34.35;;;20.80;99.90;;;;;;5018040;28;20168;-75
2023/09/12 08:53:49;;;;;;;38.47;31.83;;;20.80;99.90;;;;;;5018234;28;20041;-74
2023/09/12 08:56:16;;;;;;;39.67;34.58;;;20.90;99.90;;;;;;5017985;28;20042;-74
2023/09/12 08:58:42;;;;;;;43.50;34.15;;;20.90;99.90;;;;;;5001594;28;20091;-74
2023/09/12 09:01:11;;;;;;;40.70;34.13;;;21.20;99.90;;;;;;5017931;28;21761;-74
2023/09/12 09:03:38;;;;;;;47.80;37.85;;;21.40;99.90;;;;;;5017880;28;20474;-74
2023/09/12 09:06:05;;;;;;;43.53;35.85;;;21.60;99.90;;;;;;5017762;28;20128;-74
2023/09/12 09:08:31;;;;;;;40.30;34.15;;;21.80;99.90;;;;;;5017776;28;20038;-74
2023/09/12 09:11:05;;;;;;;42.28;35.80;;;21.90;99.90;;;;;;5017613;28;20502;-74
2023/09/12 09:13:32;;;;;;;42.67;35.17;;;21.90;99.90;;;;;;5017720;28;20048;-74
2023/09/12 09:16:16;;;;;;;45.05;37.55;;;22.00;99.90;;;;;;5017648;28;20048;-74
2023/09/12 09:18:55;;;;;;;42.40;35.95;;;22.00;99.90;;;;;;5017920;28;20077;-75
2023/09/12 09:21:25;;;;;;;42.33;35.47;;;22.00;99.90;;;;;;5017487;28;20474;-75
2023/09/12 09:23:53;;;;;;;46.28;36.85;;;22.00;99.90;;;;;;5017507;28;20045;-75
2023/09/12 09:26:19;;;;;;;38.15;31.75;;;22.10;99.90;;;;;;5018164;28;20418;-75
2023/09/12 09:28:45;;;;;;;41.42;35.08;;;22.10;99.90;;;;;;5017330;28;20485;-75
2023/09/12 09:31:14;;;;;;;40.45;33.95;;;22.10;99.90;;;;;;5017199;28;20044;-74
2023/09/12 09:33:40;;;;;;;42.10;35.97;;;22.10;99.90;;;;;;5001024;28;20391;-74
2023/09/12 09:36:07;;;;;;;44.17;34.80;;;22.10;99.90;;;;;;5001052;28;20046;-74
2023/09/12 09:38:36;;;;;;;45.30;36.63;;;22.10;99.90;;;;;;5017203;28;20045;-74
2023/09/12 09:41:06;;;;;;;48.85;38.17;;;22.20;99.90;;;;;;5017378;28;20080;-74
2023/09/12 09:43:32;;;;;;;43.20;36.83;;;22.20;99.90;;;;;;5017423;28;20037;-74
2023/09/12 09:45:58;;;;;;;39.70;33.70;;;22.30;99.90;;;;;;5000816;28;20095;-74
2023/09/12 09:48:28;;;;;;;36.13;31.48;;;22.20;99.90;;;;;;5016678;28;20498;-74
2023/09/12 09:51:00;;;;;;;43.47;36.88;;;22.30;99.90;;;;;;5016905;28;20037;-74
2023/09/12 09:53:27;;;;;;;39.20;32.78;;;22.30;99.90;;;;;;5000860;28;20410;-74
2023/09/12 09:56:06;;;;;;;37.10;33.08;;;22.40;99.90;;;;;;5016874;28;20120;-74
2023/09/12 09:58:32;;;;;;;39.63;33.40;;;22.50;99.90;;;;;;5016867;28;20046;-74
2023/09/12 10:00:58;;;;;;;38.75;32.17;;;22.60;99.90;;;;;;5016740;28;20063;-74
2023/09/12 10:03:24;;;;;;;36.67;31.58;;;22.70;99.90;;;;;;5017010;28;20052;-74
2023/09/12 10:05:53;;;;;;;36.95;31.60;;;22.80;99.90;;;;;;5016605;28;20041;-74
2023/09/12 10:08:19;;;;;;;40.33;31.63;;;23.00;99.90;;;;;;5016670;28;20116;-74
2023/09/12 10:10:47;;;;;;;32.83;28.20;;;23.10;99.90;;;;;;5000279;28;20042;-74
2023/09/12 10:13:14;;;;;;;36.20;30.30;;;23.20;99.90;;;;;;5016720;28;20501;-74
2023/09/12 10:15:43;;;;;;;36.88;30.42;;;23.30;99.90;;;;;;5016551;28;20045;-74
2023/09/12 10:18:13;;;;;;;33.75;30.05;;;23.50;99.90;;;;;;5016428;28;20087;-74
2023/09/12 10:20:49;;;;;;;35.53;29.77;;;23.70;99.90;;;;;;5016702;28;20052;-74
2023/09/12 10:23:25;;;;;;;36.28;30.23;;;23.90;99.90;;;;;;5016689;28;20068;-74
2023/09/12 10:25:51;;;;;;;32.08;28.60;;;23.90;99.90;;;;;;5016355;28;20049;-74
2023/09/12 10:28:18;;;;;;;39.78;30.23;;;23.90;99.90;;;;;;5016280;28;20084;-74
2023/09/12 10:30:44;;;;;;;31.50;26.85;;;23.90;99.90;;;;;;5016816;28;20424;-75
2023/09/12 10:33:13;;;;;;;31.52;26.85;;;23.80;99.90;;;;;;5016038;28;20087;-75
2023/09/12 10:35:39;;;;;;;33.03;27.23;;;23.80;99.90;;;;;;5016434;28;20037;-74
2023/09/12 10:38:07;;;;;;;32.85;28.08;;;23.80;99.90;;;;;;5016176;28;20041;-75
2023/09/12 10:40:36;;;;;;;32.72;29.10;;;23.90;99.90;;;;;;5016147;28;20060;-74
2023/09/12 10:43:05;;;;;;;32.80;28.90;;;24.00;99.90;;;;;;4999636;28;20490;-74
2023/09/12 10:45:32;;;;;;;34.33;27.02;;;24.00;99.90;;;;;;5016230;28;20080;-74
2023/09/12 10:47:58;;;;;;;31.05;26.15;;;24.00;99.90;;;;;;5016023;28;20490;-75
2023/09/12 10:50:24;;;;;;;29.38;25.83;;;23.90;99.90;;;;;;5015895;28;20033;-74
2023/09/12 10:52:50;;;;;;;31.45;25.55;;;24.00;99.90;;;;;;5015816;28;20033;-74
2023/09/12 10:55:19;;;;;;;25.20;22.70;;;24.00;99.90;;;;;;4999487;28;20052;-75
2023/09/12 10:58:05;;;;;;;27.65;24.08;;;24.00;99.90;;;;;;4999428;28;20045;-74
2023/09/12 11:00:32;;;;;;;28.77;23.85;;;24.10;99.90;;;;;;5015125;28;20077;-74
2023/09/12 11:03:00;;;;;;;27.45;23.45;;;24.10;99.90;;;;;;4999344;28;20037;-74
2023/09/12 11:05:28;;;;;;;27.23;24.25;;;24.30;99.90;;;;;;5015945;28;20120;-74
2023/09/12 11:07:59;;;;;;;28.85;23.92;;;24.50;99.90;;;;;;5016096;28;20038;-75
2023/09/12 11:10:26;;;;;;;25.05;22.08;;;24.70;99.90;;;;;;5016332;28;20048;-74
2023/09/12 11:12:54;;;;;;;28.88;23.30;;;24.90;99.90;;;;;;5015632;28;20524;-75
2023/09/12 11:15:22;;;;;;;23.75;20.92;;;25.00;99.90;;;;;;4999399;28;20045;-75
2023/09/12 11:17:49;;;;;;;29.88;23.00;;;25.40;99.90;;;;;;5015539;28;20081;-76
2023/09/12 11:20:16;;;;;;;29.45;22.73;;;25.40;99.90;;;;;;5015604;28;20535;-76
2023/09/12 11:22:46;;;;;;;23.88;20.70;;;25.50;99.90;;;;;;5015495;28;20099;-75
2023/09/12 11:25:19;;;;;;;24.83;20.95;;;25.50;99.90;;;;;;5015366;28;20414;-75
2023/09/12 11:27:51;;;;;;;23.95;19.48;;;25.70;99.90;;;;;;5015429;28;20490;-75
2023/09/12 11:30:21;;;;;;;21.33;18.05;;;26.00;99.90;;;;;;5015734;28;20145;-75
2023/09/12 11:32:50;;;;;;;26.33;20.23;;;26.40;99.90;;;;;;5015830;28;20072;-74
2023/09/12 11:35:17;;;;;;;21.23;18.77;;;26.70;99.90;;;;;;5015436;28;20413;-74
2023/09/12 11:37:50;;;;;;;23.02;18.35;;;26.80;99.90;;;;;;5015776;28;20045;-74
2023/09/12 11:40:17;;;;;;;22.33;18.92;;;26.80;99.90;;;;;;5015412;28;20044;-73
2023/09/12 11:42:43;;;;;;;18.73;14.65;;;26.80;99.90;;;;;;5015267;28;20041;-73
2023/09/12 11:45:10;;;;;;;18.30;14.27;;;27.00;99.90;;;;;;5015238;28;20087;-75
2023/09/12 11:47:43;;;;;;;17.83;15.35;;;27.30;99.10;;;;;;5015215;28;20038;-74
2023/09/12 11:50:27;;;;;;;18.15;16.10;;;27.60;98.60;;;;;;5015362;28;20041;-74
2023/09/12 11:53:08;;;;;;;20.67;17.20;;;27.90;98.00;;;;;;5015193;28;20052;-74
2023/09/12 11:55:43;;;;;;;18.17;14.95;;;27.90;97.80;;;;;;5015154;28;20052;-74
2023/09/12 11:58:10;;;;;;;17.17;13.10;;;28.00;96.30;;;;;;5015225;28;20049;-74
2023/09/12 12:00:37;;;;;;;23.20;15.65;;;27.80;95.60;;;;;;5015158;28;20041;-74
2023/09/12 12:03:04;;;;;;;18.33;14.73;;;27.50;95.40;;;;;;5015265;28;20422;-74
2023/09/12 12:05:30;;;;;;;15.23;12.70;;;27.20;96.00;;;;;;5015015;28;20041;-75
2023/09/12 12:07:55;;;;;;;12.65;9.45;;;26.90;96.30;;;;;;5015010;28;20033;-76
2023/09/12 12:10:23;;;;;;;13.82;11.95;;;26.80;96.00;;;;;;5015078;28;20037;-76
2023/09/12 12:12:53;;;;;;;16.17;13.18;;;26.80;95.20;;;;;;5018453;28;20041;-76
2023/09/12 12:15:18;;;;;;;14.75;13.05;;;26.70;96.00;;;;;;5002446;28;20044;-76
2023/09/12 12:17:44;;;;;;;17.13;13.40;;;26.50;96.30;;;;;;5018744;28;20030;-76
2023/09/12 12:20:11;;;;;;;15.65;13.15;;;26.30;95.70;;;;;;5018733;28;20041;-76
2023/09/12 12:22:38;;;;;;;15.60;13.60;;;26.10;96.30;;;;;;5002455;28;20049;-76
2023/09/12 12:25:11;;;;;;;18.45;12.10;;;26.00;95.90;;;;;;5018537;28;20034;-76